createdAt,value
2019-05-07T00:00:23.800Z,12.93
2019-05-07T00:02:53.316Z,14.50
2019-05-07T00:05:22.907Z,12.45
2019-05-07T00:07:52.387Z,12.47
2019-05-07T00:10:24.694Z,13.22
2019-05-07T00:12:53.285Z,12.70
2019-05-07T00:15:23.859Z,13.93
2019-05-07T00:17:53.275Z,14.93
2019-05-07T00:20:23.181Z,14.83
2019-05-07T00:22:53.379Z,13.75
2019-05-07T00:25:23.008Z,13.58
2019-05-07T00:27:52.461Z,13.38
2019-05-07T00:30:22.391Z,12.47
2019-05-07T00:32:53.118Z,12.65
2019-05-07T00:35:24.438Z,13.60
2019-05-07T00:37:55.498Z,16.17
2019-05-07T00:40:42.590Z,12.30
2019-05-07T00:43:19.415Z,18.35
2019-05-07T00:45:52.721Z,15.88
2019-05-07T00:48:23.446Z,16.23
2019-05-07T00:50:54.243Z,14.68
2019-05-07T00:53:23.864Z,13.88
2019-05-07T00:55:54.510Z,15.32
2019-05-07T00:58:26.743Z,12.35
2019-05-07T01:00:54.996Z,12.35
2019-05-07T01:03:24.365Z,13.50
2019-05-07T01:05:53.780Z,13.30
2019-05-07T01:08:23.132Z,11.60
2019-05-07T01:10:53.012Z,12.37
2019-05-07T01:13:23.391Z,14.60
2019-05-07T01:15:53.426Z,16.82
2019-05-07T01:18:23.416Z,13.65
2019-05-07T01:20:53.445Z,15.03
2019-05-07T01:23:23.209Z,14.80
2019-05-07T01:25:52.891Z,15.13
2019-05-07T01:28:22.561Z,15.80
2019-05-07T01:30:52.851Z,13.85
2019-05-07T01:33:25.271Z,14.30
2019-05-07T01:35:56.290Z,12.37
2019-05-07T01:38:26.497Z,14.18
2019-05-07T01:40:55.921Z,11.20
2019-05-07T01:43:25.381Z,14.30
2019-05-07T01:45:54.752Z,12.13
2019-05-07T01:48:24.100Z,11.22
2019-05-07T01:50:53.751Z,15.32
2019-05-07T01:53:23.168Z,12.80
2019-05-07T01:55:52.524Z,13.85
2019-05-07T01:58:22.184Z,12.75
2019-05-07T02:00:53.160Z,12.10
2019-05-07T02:03:24.491Z,15.48
2019-05-07T02:05:58.216Z,14.23
2019-05-07T02:08:38.055Z,12.00
2019-05-07T02:11:24.110Z,11.22
2019-05-07T02:13:53.466Z,12.60
2019-05-07T02:16:22.823Z,10.65
2019-05-07T02:18:52.806Z,13.18
2019-05-07T02:21:22.392Z,14.40
2019-05-07T02:23:52.296Z,12.25
2019-05-07T02:26:22.550Z,14.35
2019-05-07T02:28:52.328Z,12.80
2019-05-07T02:31:23.276Z,11.78
2019-05-07T02:33:54.189Z,12.78
2019-05-07T02:36:24.147Z,15.70
2019-05-07T02:39:03.617Z,13.15
2019-05-07T02:41:35.365Z,11.95
2019-05-07T02:44:04.879Z,14.03
2019-05-07T02:46:53.924Z,14.05
2019-05-07T02:49:27.736Z,15.03
2019-05-07T02:54:29.119Z,15.55
2019-05-07T02:56:58.522Z,15.13
2019-05-07T02:59:27.985Z,16.32
2019-05-07T03:01:57.476Z,16.87
2019-05-07T03:04:26.996Z,19.17
2019-05-07T03:06:57.567Z,15.72
2019-05-07T03:09:27.150Z,17.40
2019-05-07T03:11:56.656Z,15.53
2019-05-07T03:14:26.015Z,16.87
2019-05-07T03:16:55.398Z,18.37
2019-05-07T03:19:25.061Z,16.05
2019-05-07T03:21:55.159Z,19.37
2019-05-07T03:24:39.059Z,19.50
2019-05-07T03:27:09.656Z,19.77
2019-05-07T03:29:43.923Z,17.67
2019-05-07T03:32:29.653Z,17.17
2019-05-07T03:35:06.874Z,19.55
2019-05-07T03:37:36.327Z,18.95
2019-05-07T03:40:07.659Z,18.42
2019-05-07T03:42:37.103Z,13.00
2019-05-07T03:45:09.468Z,14.93
2019-05-07T03:47:43.551Z,13.90
2019-05-07T03:50:14.579Z,17.67
2019-05-07T03:52:44.202Z,15.38
2019-05-07T03:55:14.780Z,13.72
2019-05-07T03:57:44.380Z,13.40
2019-05-07T04:00:13.948Z,14.87
2019-05-07T04:02:44.093Z,16.07
2019-05-07T04:05:14.472Z,14.73
2019-05-07T04:07:43.980Z,13.08
2019-05-07T04:10:15.126Z,14.15
2019-05-07T04:12:44.895Z,13.35
2019-05-07T04:15:19.139Z,15.50
2019-05-07T04:17:47.184Z,12.40
2019-05-07T04:20:16.615Z,17.52
2019-05-07T04:26:08.388Z,14.18
2019-05-07T04:28:54.541Z,14.85
2019-05-07T04:31:25.598Z,14.75
2019-05-07T04:33:56.602Z,14.87
2019-05-07T04:36:27.818Z,14.80
2019-05-07T04:45:04.444Z,14.25
2019-05-07T04:47:42.454Z,12.53
2019-05-07T04:50:07.892Z,11.73
2019-05-07T04:52:38.436Z,14.20
2019-05-07T04:55:08.461Z,13.72
2019-05-07T04:57:37.892Z,14.45
2019-05-07T05:00:09.629Z,14.15
2019-05-07T05:02:52.732Z,13.13
2019-05-07T05:05:23.570Z,11.43
2019-05-07T05:07:53.646Z,11.20
2019-05-07T05:10:23.457Z,12.82
2019-05-07T05:12:53.992Z,11.65
2019-05-07T05:15:23.423Z,12.98
2019-05-07T05:17:54.022Z,15.53
2019-05-07T05:20:33.462Z,14.28
2019-05-07T05:23:12.843Z,11.65
2019-05-07T05:25:43.310Z,12.75
2019-05-07T05:28:13.459Z,14.13
2019-05-07T05:30:48.887Z,19.67
2019-05-07T05:33:18.319Z,16.25
2019-05-07T05:35:47.679Z,17.42
2019-05-07T05:38:17.114Z,22.27
2019-05-07T05:40:46.467Z,21.70
2019-05-07T05:43:31.778Z,20.57
2019-05-07T05:46:02.940Z,25.88
2019-05-07T05:48:33.373Z,21.30
2019-05-07T05:51:07.779Z,23.18
2019-05-07T05:53:38.879Z,21.75
2019-05-07T05:56:19.093Z,21.87
2019-05-07T05:58:59.281Z,22.82
2019-05-07T06:01:46.925Z,21.35
2019-05-07T06:04:17.999Z,21.70
2019-05-07T06:07:08.046Z,21.85
2019-05-07T06:09:27.415Z,23.40
2019-05-07T06:12:13.692Z,19.70
2019-05-07T06:14:56.693Z,22.10
2019-05-07T06:17:33.271Z,22.77
2019-05-07T06:20:06.985Z,26.07
2019-05-07T06:22:46.554Z,24.60
2019-05-07T06:25:17.670Z,20.52
2019-05-07T06:27:47.068Z,22.95
2019-05-07T06:30:17.675Z,21.17
2019-05-07T06:32:47.052Z,19.32
2019-05-07T06:35:19.333Z,17.73
2019-05-07T06:37:47.608Z,18.87
2019-05-07T06:40:20.384Z,18.98
2019-05-07T06:42:58.651Z,31.75
2019-05-07T06:45:32.312Z,21.35
2019-05-07T06:48:02.840Z,18.02
2019-05-07T06:50:32.746Z,18.32
2019-05-07T06:53:02.822Z,21.05
2019-05-07T06:55:33.767Z,23.92
2019-05-07T06:58:04.387Z,19.62
2019-05-07T07:00:44.184Z,23.00
2019-05-07T07:03:15.272Z,20.20
2019-05-07T07:05:46.275Z,23.90
2019-05-07T07:08:26.313Z,18.32
2019-05-07T07:11:15.677Z,35.70
2019-05-07T07:13:45.040Z,24.35
2019-05-07T07:16:14.475Z,22.15
2019-05-07T07:18:51.943Z,19.00
2019-05-07T07:21:14.952Z,17.17
2019-05-07T07:23:44.337Z,21.35
2019-05-07T07:30:06.337Z,19.77
2019-05-07T07:32:37.607Z,18.02
2019-05-07T07:35:09.368Z,17.75
2019-05-07T07:37:43.016Z,14.68
2019-05-07T07:42:43.196Z,17.20
2019-05-07T07:48:02.277Z,19.80
2019-05-07T07:50:33.091Z,15.85
2019-05-07T07:53:02.850Z,17.52
2019-05-07T07:55:33.943Z,14.53
2019-05-07T07:58:04.949Z,17.62
2019-05-07T08:00:48.264Z,19.12
2019-05-07T08:03:17.611Z,21.83
2019-05-07T08:05:47.034Z,14.45
2019-05-07T08:08:16.429Z,16.62
2019-05-07T08:11:18.475Z,17.02
2019-05-07T08:13:47.833Z,18.15
2019-05-07T08:16:17.216Z,19.00
2019-05-07T08:18:47.711Z,13.35
2019-05-07T08:21:17.145Z,19.30
2019-05-07T08:26:58.073Z,15.63
2019-05-07T08:29:27.529Z,13.83
2019-05-07T08:34:49.307Z,11.95
2019-05-07T08:37:18.683Z,12.07
2019-05-07T08:39:49.180Z,10.28
2019-05-07T08:42:18.712Z,9.55
2019-05-07T08:44:51.893Z,8.55
2019-05-07T08:47:25.083Z,12.98
2019-05-07T08:49:54.512Z,9.20
2019-05-07T08:52:26.136Z,6.92
2019-05-07T08:54:55.056Z,8.23
2019-05-07T08:57:24.517Z,8.75
2019-05-07T09:00:00.402Z,6.80
2019-05-07T09:02:27.647Z,7.78
2019-05-07T09:04:57.012Z,8.98
2019-05-07T09:07:26.409Z,7.50
2019-05-07T09:09:55.779Z,7.95
2019-05-07T09:12:25.224Z,7.03
2019-05-07T09:14:54.728Z,9.45
2019-05-07T09:17:24.111Z,7.45
2019-05-07T09:19:54.920Z,10.15
2019-05-07T09:22:24.605Z,9.53
2019-05-07T09:24:53.959Z,8.35
2019-05-07T09:27:32.770Z,8.18
2019-05-07T09:30:12.849Z,9.35
2019-05-07T09:32:46.794Z,10.08
2019-05-07T09:37:46.533Z,10.63
2019-05-07T09:40:16.315Z,10.30
2019-05-07T09:42:45.673Z,9.23
2019-05-07T09:45:15.171Z,8.60
2019-05-07T09:47:44.643Z,10.45
2019-05-07T09:50:14.612Z,10.38
2019-05-07T09:52:44.063Z,9.85
2019-05-07T09:55:16.794Z,9.38
2019-05-07T09:57:44.900Z,7.08
2019-05-07T10:00:15.457Z,10.90
2019-05-07T10:02:45.003Z,9.58
2019-05-07T10:05:15.024Z,8.25
2019-05-07T10:07:44.437Z,9.30
2019-05-07T10:10:14.335Z,8.40
2019-05-07T10:12:45.664Z,10.08
2019-05-07T10:15:16.249Z,10.43
2019-05-07T10:17:47.321Z,9.35
2019-05-07T10:20:22.376Z,10.15
2019-05-07T10:22:51.864Z,8.90
2019-05-07T10:25:22.417Z,12.07
2019-05-07T10:27:53.223Z,11.28
2019-05-07T10:30:23.154Z,9.15
2019-05-07T10:32:52.807Z,8.63
2019-05-07T10:35:23.007Z,10.60
2019-05-07T10:37:53.037Z,8.98
2019-05-07T10:40:23.941Z,9.13
2019-05-07T10:42:53.639Z,8.18
2019-05-07T10:45:32.265Z,11.65
2019-05-07T10:48:11.569Z,12.33
2019-05-07T10:50:42.550Z,6.45
2019-05-07T10:53:12.568Z,8.08
2019-05-07T10:55:45.461Z,7.92
2019-05-07T10:58:13.212Z,11.97
2019-05-07T11:00:42.741Z,7.87
2019-05-07T11:03:13.787Z,6.30
2019-05-07T11:05:43.232Z,7.90
2019-05-07T11:08:12.666Z,8.38
2019-05-07T11:10:42.571Z,8.50
2019-05-07T11:13:12.846Z,10.90
2019-05-07T11:15:44.390Z,7.85
2019-05-07T11:18:32.301Z,11.85
2019-05-07T11:21:03.072Z,9.93
2019-05-07T11:23:32.934Z,9.03
2019-05-07T11:26:02.692Z,9.70
2019-05-07T11:28:32.565Z,10.88
2019-05-07T11:31:02.295Z,7.90
2019-05-07T11:33:32.634Z,7.40
2019-05-07T11:36:02.362Z,9.93
2019-05-07T11:38:33.341Z,7.55
2019-05-07T11:41:03.107Z,9.03
2019-05-07T11:43:53.848Z,8.68
2019-05-07T11:46:26.180Z,6.35
2019-05-07T11:48:57.165Z,8.33
2019-05-07T11:51:33.926Z,9.20
2019-05-07T11:54:16.897Z,25.37
2019-05-07T11:56:46.348Z,10.28
2019-05-07T11:59:15.694Z,9.80
2019-05-07T12:01:48.237Z,7.90
2019-05-07T12:04:17.698Z,8.98
2019-05-07T12:06:47.124Z,10.43
2019-05-07T12:09:16.534Z,7.12
2019-05-07T12:11:45.887Z,10.18
2019-05-07T12:14:28.126Z,8.98
2019-05-07T12:16:46.444Z,5.92
2019-05-07T12:19:16.562Z,5.72
2019-05-07T12:21:46.642Z,7.87
2019-05-07T12:24:16.606Z,6.00
2019-05-07T12:26:46.192Z,7.20
2019-05-07T12:29:15.625Z,11.08
2019-05-07T12:32:05.021Z,6.10
2019-05-07T12:34:45.088Z,8.53
2019-05-07T12:37:14.476Z,6.75
2019-05-07T12:39:43.887Z,8.60
2019-05-07T12:42:13.331Z,9.08
2019-05-07T12:44:43.215Z,7.12
2019-05-07T12:47:13.718Z,10.93
2019-05-07T12:49:43.088Z,5.92
2019-05-07T12:52:22.743Z,9.53
2019-05-07T12:54:53.861Z,7.20
2019-05-07T12:57:24.484Z,7.97
2019-05-07T12:59:53.854Z,8.03
2019-05-07T13:02:40.568Z,10.35
2019-05-07T13:05:06.411Z,7.05
2019-05-07T13:07:37.400Z,5.17
2019-05-07T13:10:08.577Z,7.42
2019-05-07T13:12:38.319Z,8.68
2019-05-07T13:15:20.464Z,8.45
2019-05-07T13:17:38.965Z,6.15
2019-05-07T13:20:08.641Z,6.70
2019-05-07T13:22:37.990Z,5.47
2019-05-07T13:25:07.416Z,6.83
2019-05-07T13:27:39.913Z,9.83
2019-05-07T13:30:08.197Z,12.15
2019-05-07T13:32:39.466Z,8.15
2019-05-07T13:35:09.185Z,7.60
2019-05-07T13:37:57.047Z,9.90
2019-05-07T13:40:31.565Z,8.30
2019-05-07T13:43:05.617Z,6.55
2019-05-07T13:45:36.689Z,9.65
2019-05-07T13:48:16.555Z,4.97
2019-05-07T13:50:46.450Z,7.20
2019-05-07T13:53:16.243Z,8.50
2019-05-07T13:55:46.039Z,7.53
2019-05-07T13:58:15.931Z,7.47
2019-05-07T14:00:46.980Z,7.55
2019-05-07T14:03:18.874Z,6.65
2019-05-07T14:05:48.461Z,9.98
2019-05-07T14:08:18.874Z,7.62
2019-05-07T14:10:48.355Z,7.60
2019-05-07T14:13:17.852Z,8.98
2019-05-07T14:16:06.700Z,10.35
2019-05-07T14:18:39.978Z,8.88
2019-05-07T14:21:09.532Z,14.15
2019-05-07T14:23:38.885Z,9.48
2019-05-07T14:26:08.376Z,12.03
2019-05-07T14:28:37.853Z,20.27
2019-05-07T14:31:07.205Z,7.33
2019-05-07T14:33:54.519Z,6.28
2019-05-07T14:36:25.859Z,11.78
2019-05-07T14:38:55.311Z,8.10
2019-05-07T14:41:25.698Z,8.53
2019-05-07T14:43:57.154Z,7.87
2019-05-07T14:46:26.594Z,10.13
2019-05-07T14:48:55.947Z,7.95
2019-05-07T14:51:25.455Z,13.10
2019-05-07T14:53:54.875Z,10.15
2019-05-07T14:56:24.479Z,8.60
2019-05-07T14:58:54.058Z,5.10
2019-05-07T15:01:23.626Z,8.65
2019-05-07T15:03:53.143Z,8.93
2019-05-07T15:06:26.055Z,10.43
2019-05-07T15:08:55.911Z,11.05
2019-05-07T15:11:25.435Z,12.03
2019-05-07T15:13:55.172Z,10.00
2019-05-07T15:16:24.599Z,13.72
2019-05-07T15:18:55.408Z,9.98
2019-05-07T15:21:26.692Z,12.55
2019-05-07T15:23:56.139Z,8.00
2019-05-07T15:26:25.912Z,7.65
2019-05-07T15:28:57.100Z,10.88
2019-05-07T15:31:42.261Z,7.75
2019-05-07T15:34:12.368Z,9.10
2019-05-07T15:36:42.489Z,17.37
2019-05-07T15:39:13.399Z,9.10
2019-05-07T15:41:43.089Z,10.60
2019-05-07T15:44:12.531Z,12.82
2019-05-07T15:46:42.809Z,12.13
2019-05-07T15:49:12.630Z,13.93
2019-05-07T15:51:42.179Z,8.88
2019-05-07T15:54:12.840Z,9.83
2019-05-07T15:56:42.515Z,10.98
2019-05-07T15:59:13.599Z,10.40
2019-05-07T16:01:43.087Z,11.45
2019-05-07T16:04:20.013Z,10.55
2019-05-07T16:06:43.539Z,6.22
2019-05-07T16:09:13.144Z,6.92
2019-05-07T16:11:43.183Z,10.55
2019-05-07T16:14:14.878Z,8.73
2019-05-07T16:16:46.490Z,10.45
2019-05-07T16:21:58.355Z,8.48
2019-05-07T16:24:27.750Z,11.05
2019-05-07T16:26:57.189Z,10.23
2019-05-07T16:29:26.563Z,11.75
2019-05-07T16:31:55.932Z,7.67
2019-05-07T16:34:25.379Z,13.45
2019-05-07T16:36:54.806Z,13.93
2019-05-07T16:39:24.177Z,9.88
2019-05-07T16:41:53.544Z,8.20
2019-05-07T16:44:22.903Z,12.40
2019-05-07T16:46:53.449Z,11.83
2019-05-07T16:49:22.981Z,7.83
2019-05-07T16:51:52.579Z,13.15
2019-05-07T16:54:21.956Z,11.15
2019-05-07T16:57:03.106Z,12.95
2019-05-07T16:59:32.840Z,13.13
2019-05-07T17:02:03.887Z,10.45
2019-05-07T17:04:33.332Z,11.00
2019-05-07T17:07:05.604Z,12.03
2019-05-07T17:09:35.554Z,13.68
2019-05-07T17:12:06.782Z,11.45
2019-05-07T17:14:36.208Z,16.00
2019-05-07T17:17:05.651Z,14.20
2019-05-07T17:19:35.094Z,11.70
2019-05-07T17:22:06.413Z,13.93
2019-05-07T17:24:35.514Z,10.40
2019-05-07T17:27:04.885Z,14.28
2019-05-07T17:29:34.309Z,13.18
2019-05-07T17:32:03.959Z,13.55
2019-05-07T17:34:33.404Z,13.90
2019-05-07T17:37:02.878Z,11.95
2019-05-07T17:39:32.333Z,13.38
2019-05-07T17:42:02.585Z,14.13
2019-05-07T17:44:32.495Z,16.62
2019-05-07T17:47:02.955Z,12.78
2019-05-07T17:49:36.303Z,12.35
2019-05-07T17:52:04.513Z,11.55
2019-05-07T17:54:33.976Z,12.70
2019-05-07T17:57:03.436Z,11.55
2019-05-07T17:59:32.885Z,12.25
2019-05-07T18:02:09.908Z,13.72
2019-05-07T18:04:50.585Z,11.57
2019-05-07T18:07:11.982Z,12.25
2019-05-07T18:09:42.460Z,15.13
2019-05-07T18:12:13.472Z,13.85
2019-05-07T18:14:42.847Z,14.55
2019-05-07T18:17:13.924Z,14.55
2019-05-07T18:19:43.628Z,11.97
2019-05-07T18:22:13.016Z,16.85
2019-05-07T18:24:42.476Z,15.70
2019-05-07T18:27:13.535Z,16.40
2019-05-07T18:29:42.962Z,11.70
2019-05-07T18:32:12.540Z,14.75
2019-05-07T18:34:42.787Z,12.85
2019-05-07T18:37:12.571Z,13.03
2019-05-07T18:39:42.856Z,12.78
2019-05-07T18:42:12.821Z,14.93
2019-05-07T18:44:42.447Z,12.20
2019-05-07T18:47:12.868Z,12.93
2019-05-07T18:49:44.865Z,13.50
2019-05-07T18:52:15.427Z,15.60
2019-05-07T18:54:47.641Z,15.10
2019-05-07T18:57:15.876Z,13.13
2019-05-07T18:59:45.253Z,15.95
2019-05-07T19:02:15.275Z,14.30
2019-05-07T19:04:44.716Z,14.13
2019-05-07T19:07:14.154Z,18.45
2019-05-07T19:09:43.592Z,11.22
2019-05-07T19:12:14.906Z,11.93
2019-05-07T19:14:44.319Z,17.65
2019-05-07T19:17:13.759Z,12.40
2019-05-07T19:19:43.230Z,13.70
2019-05-07T19:22:12.579Z,17.95
2019-05-07T19:24:47.691Z,14.73
2019-05-07T19:27:12.991Z,17.45
2019-05-07T19:29:45.087Z,12.43
2019-05-07T19:32:14.181Z,11.88
2019-05-07T19:38:07.027Z,15.43
2019-05-07T19:44:02.059Z,14.43
2019-05-07T19:46:33.291Z,14.75
2019-05-07T19:52:38.223Z,14.00
2019-05-07T19:58:32.720Z,15.08
2019-05-07T20:04:37.787Z,15.00
2019-05-07T20:07:07.229Z,19.42
2019-05-07T20:09:38.292Z,14.03
2019-05-07T20:12:08.124Z,11.25
2019-05-07T20:14:37.795Z,21.33
2019-05-07T20:17:07.165Z,20.00
2019-05-07T20:19:36.611Z,14.73
2019-05-07T20:22:07.234Z,17.02
2019-05-07T20:24:36.739Z,18.17
2019-05-07T20:27:06.171Z,16.97
2019-05-07T20:29:35.560Z,15.18
2019-05-07T20:35:29.194Z,22.67
2019-05-07T20:37:58.719Z,13.65
2019-05-07T20:40:28.085Z,15.72
2019-05-07T20:42:57.508Z,21.82
2019-05-07T20:45:28.527Z,20.40
2019-05-07T20:47:57.889Z,19.55
2019-05-07T20:50:27.331Z,16.15
2019-05-07T20:52:56.707Z,13.85
2019-05-07T20:59:02.997Z,25.25
2019-05-07T21:01:33.072Z,16.05
2019-05-07T21:04:02.764Z,18.50
2019-05-07T21:06:32.457Z,14.55
2019-05-07T21:09:02.156Z,20.92
2019-05-07T21:11:33.140Z,15.75
2019-05-07T21:14:03.210Z,16.52
2019-05-07T21:16:33.526Z,16.85
2019-05-07T21:19:02.988Z,19.48
2019-05-07T21:21:32.825Z,23.77
2019-05-07T21:24:02.495Z,16.45
2019-05-07T21:29:55.987Z,19.77
2019-05-07T21:34:59.125Z,16.90
2019-05-07T21:37:28.492Z,20.92
2019-05-07T21:39:57.925Z,19.50
2019-05-07T21:45:42.190Z,17.23
2019-05-07T21:48:10.807Z,18.02
2019-05-07T21:50:41.151Z,16.02
2019-05-07T21:53:12.184Z,17.80
2019-05-07T21:55:44.258Z,18.82
2019-05-07T22:04:22.025Z,19.02
2019-05-07T22:06:52.394Z,18.95
2019-05-07T22:09:23.070Z,18.55
2019-05-07T22:11:53.746Z,20.48
2019-05-07T22:14:24.383Z,20.95
2019-05-07T22:16:54.583Z,20.80
2019-05-07T22:19:24.319Z,17.85
2019-05-07T22:21:53.818Z,22.00
2019-05-07T22:27:45.981Z,15.85
2019-05-07T22:30:17.056Z,16.20
2019-05-07T22:32:48.045Z,17.55
2019-05-07T22:35:19.040Z,14.47
2019-05-07T22:37:51.957Z,15.10
2019-05-07T22:40:22.699Z,19.12
2019-05-07T22:42:53.755Z,14.40
2019-05-07T22:45:23.190Z,17.42
2019-05-07T22:47:52.724Z,14.75
2019-05-07T22:50:22.649Z,13.65
2019-05-07T22:52:52.496Z,15.05
2019-05-07T22:55:23.207Z,14.65
2019-05-07T22:57:57.108Z,14.10
2019-05-07T23:00:32.118Z,11.33
2019-05-07T23:03:02.691Z,13.50
2019-05-07T23:05:32.803Z,14.43
2019-05-07T23:08:02.483Z,13.58
2019-05-07T23:10:33.258Z,12.53
2019-05-07T23:13:02.908Z,11.65
2019-05-07T23:15:32.339Z,13.28
2019-05-07T23:18:04.192Z,12.50
2019-05-07T23:20:32.862Z,13.18
2019-05-07T23:23:02.284Z,15.28
2019-05-07T23:25:32.284Z,13.22
2019-05-07T23:28:05.205Z,12.53
2019-05-07T23:30:33.937Z,11.57
2019-05-07T23:33:03.312Z,10.90
2019-05-07T23:35:32.918Z,11.88
2019-05-07T23:38:02.601Z,10.82
2019-05-07T23:40:43.939Z,9.68
2019-05-07T23:43:18.055Z,12.53
2019-05-07T23:45:47.410Z,14.07
2019-05-07T23:48:16.836Z,11.38
2019-05-07T23:50:46.263Z,10.55
2019-05-07T23:53:15.628Z,13.40
2019-05-07T23:55:44.986Z,12.07
2019-05-07T23:58:14.430Z,10.00
